Time;durP1;ratioP1;P1;durP2;ratioP2;P2;SDS_P1;SDS_P2;PMS_P1;PMS_P2;Temp;Humidity;BMP_temperature;BMP_pressure;BME280_temperature;BME280_humidity;BME280_pressure;Samples;Min_cycle;Max_cycle;Signal;HPM_P1;HPM_P2
2023/01/12 00:02:23;;;;;;;3.03;1.58;;;;;;;4.24;63.82;100308.09;4457323;32;34764;-81
2023/01/12 00:04:51;;;;;;;1.98;1.87;;;;;;;4.24;64.07;100303.72;4457222;31;32878;-82
2023/01/12 00:07:19;;;;;;;2.60;2.40;;;;;;;4.33;64.03;100306.25;4458089;32;33808;-81
2023/01/12 00:09:47;;;;;;;0.30;0.30;;;;;;;4.18;64.42;100314.25;4469460;32;34604;-82
2023/01/12 00:12:15;;;;;;;1.35;1.27;;;;;;;4.33;64.34;100323.69;4443635;32;34563;-81
2023/01/12 00:14:43;;;;;;;0.10;0.10;;;;;;;4.34;64.30;100325.41;4457138;32;33166;-82
2023/01/12 00:17:15;;;;;;;0.20;0.20;;;;;;;4.44;63.96;100336.66;4460707;32;268390;-82
2023/01/12 00:19:43;;;;;;;2.50;2.30;;;;;;;4.55;63.49;100334.78;4457442;32;34349;-83
2023/01/12 00:22:11;;;;;;;0.00;0.00;;;;;;;4.50;63.81;100326.13;4456380;32;33927;-83
2023/01/12 00:24:46;;;;;;;0.98;0.95;;;;;;;4.41;63.83;100326.22;4457016;32;33066;-83
2023/01/12 00:27:18;;;;;;;0.10;0.10;;;;;;;4.75;62.52;100326.72;4443417;32;31585;-83
2023/01/12 00:29:48;;;;;;;3.00;1.02;;;;;;;4.50;63.31;100315.66;4470328;32;33967;-83
2023/01/12 00:32:18;;;;;;;0.30;0.30;;;;;;;4.40;64.19;100308.78;4462084;32;33330;-84
2023/01/12 00:34:47;;;;;;;0.77;0.77;;;;;;;4.44;64.01;100315.72;4469219;32;34070;-84
2023/01/12 00:37:18;;;;;;;0.98;0.98;;;;;;;4.36;64.12;100324.50;4469190;32;32525;-84
2023/01/12 00:39:45;;;;;;;0.90;0.88;;;;;;;4.49;63.93;100321.78;4456810;32;32984;-83
2023/01/12 00:45:20;;;;;;;6.25;3.95;;;;;;;4.84;63.36;100326.59;4458788;32;33163;-83
2023/01/12 00:47:49;;;;;;;2.45;2.33;;;;;;;5.00;62.55;100317.69;4469627;32;34063;-82
2023/01/12 00:50:17;;;;;;;2.37;2.20;;;;;;;4.54;64.12;100323.44;4456899;32;33536;-82
2023/01/12 00:52:46;;;;;;;0.25;0.25;;;;;;;4.49;64.77;100324.38;4457089;32;33950;-82
2023/01/12 00:55:15;;;;;;;0.90;0.90;;;;;;;4.48;64.73;100322.66;4469788;32;33903;-81
2023/01/12 00:57:42;;;;;;;1.80;1.70;;;;;;;4.61;64.72;100337.34;4456654;32;31796;-80
2023/01/12 01:00:12;;;;;;;0.95;0.95;;;;;;;4.72;64.28;100330.22;4456960;32;32787;-81
2023/01/12 01:02:40;;;;;;;2.05;1.55;;;;;;;4.71;64.62;100335.50;4469830;32;34140;-81
2023/01/12 01:05:09;;;;;;;1.00;0.88;;;;;;;4.77;64.18;100338.91;4456804;32;33933;-81
2023/01/12 01:07:37;;;;;;;0.60;0.60;;;;;;;4.76;64.58;100342.41;4469109;32;33006;-81
2023/01/12 01:10:06;;;;;;;0.65;0.65;;;;;;;4.73;64.74;100349.41;4469678;32;33442;-82
2023/01/12 01:12:33;;;;;;;2.62;2.37;;;;;;;4.77;64.94;100346.75;4467580;32;34474;-82
2023/01/12 01:15:03;;;;;;;0.60;0.55;;;;;;;4.80;64.73;100341.50;4456825;32;33630;-84
2023/01/12 01:17:31;;;;;;;3.12;0.60;;;;;;;4.76;64.99;100345.03;4456946;32;32382;-82
2023/01/12 01:20:00;;;;;;;1.70;1.60;;;;;;;5.01;64.65;100349.97;4469690;32;34549;-82
2023/01/12 01:22:27;;;;;;;1.35;1.25;;;;;;;5.08;64.36;100351.59;4465726;32;33461;-82
2023/01/12 01:24:55;;;;;;;1.37;1.33;;;;;;;5.03;64.62;100348.19;4468929;32;33899;-84
2023/01/12 01:27:22;;;;;;;0.80;0.80;;;;;;;5.00;64.85;100349.09;4456132;32;33334;-84
2023/01/12 01:29:50;;;;;;;0.25;0.25;;;;;;;4.99;65.16;100355.22;4456128;32;33919;-84
2023/01/12 01:32:18;;;;;;;0.93;0.93;;;;;;;5.01;65.23;100352.56;4442363;32;32352;-84
2023/01/12 01:34:47;;;;;;;0.13;0.13;;;;;;;5.13;65.14;100365.53;4468328;32;33828;-84
2023/01/12 01:37:14;;;;;;;2.50;1.98;;;;;;;5.18;64.83;100355.84;4456496;32;32705;-84
2023/01/12 01:39:43;;;;;;;0.25;0.25;;;;;;;5.22;64.94;100351.44;4455834;32;33929;-84
2023/01/12 01:42:26;;;;;;;0.90;0.90;;;;;;;5.05;65.51;100360.38;4469093;32;33848;-84
2023/01/12 01:45:04;;;;;;;0.45;0.45;;;;;;;5.19;65.40;100365.44;4444029;32;32537;-83
2023/01/12 01:47:38;;;;;;;0.10;0.10;;;;;;;5.28;65.43;100360.09;4446574;32;33632;-83
2023/01/12 01:50:22;;;;;;;4.18;1.65;;;;;;;5.45;65.03;100358.97;4468135;32;32713;-84
2023/01/12 01:52:52;;;;;;;4.03;0.95;;;;;;;5.90;62.87;100368.78;4455837;32;33402;-83
2023/01/12 01:55:35;;;;;;;1.33;0.73;;;;;;;6.00;62.48;100360.81;4456014;32;33130;-83
2023/01/12 01:58:19;;;;;;;0.00;0.00;;;;;;;5.27;64.55;100366.22;4455140;32;32373;-83
2023/01/12 02:00:47;;;;;;;0.10;0.10;;;;;;;5.33;64.25;100373.97;4441823;32;33172;-83
2023/01/12 02:03:15;;;;;;;0.35;0.28;;;;;;;5.01;65.74;100363.03;4455874;32;34814;-83
2023/01/12 02:05:46;;;;;;;0.82;0.82;;;;;;;5.14;65.87;100369.88;4467960;32;33984;-83
2023/01/12 02:08:21;;;;;;;13.62;1.45;;;;;;;5.21;65.74;100360.19;4468123;32;32868;-82
2023/01/12 02:10:50;;;;;;;4.12;0.85;;;;;;;5.19;65.70;100360.19;4468405;32;33547;-84
2023/01/12 02:16:27;;;;;;;1.10;1.10;;;;;;;5.56;65.15;100373.69;4452197;32;34233;-84
2023/01/12 02:19:35;;;;;;;3.10;0.62;;;;;;;5.52;65.31;100378.97;4443047;32;32853;-84
2023/01/12 02:22:22;;;;;;;2.12;2.03;;;;;;;5.59;65.13;100380.59;4442204;32;32880;-85
2023/01/12 02:25:19;;;;;;;0.93;0.93;;;;;;;5.54;65.50;100378.06;4468462;32;34388;-83
2023/01/12 02:27:59;;;;;;;6.60;3.22;;;;;;;5.64;65.45;100360.44;4468392;32;34052;-83
2023/01/12 02:30:38;;;;;;;1.98;1.80;;;;;;;5.63;65.78;100362.19;4481804;32;33270;-84
2023/01/12 02:33:17;;;;;;;3.25;3.05;;;;;;;5.69;65.65;100369.09;4467176;32;32496;-83
2023/01/12 02:36:04;;;;;;;3.53;2.40;;;;;;;5.73;65.81;100367.31;4468224;32;33566;-83
2023/01/12 02:38:42;;;;;;;1.73;0.85;;;;;;;5.69;66.05;100374.34;4467933;32;33698;-82
2023/01/12 02:42:39;;;;;;;0.75;0.70;;;;;;;5.80;65.99;100369.81;4453988;32;32092;-83
2023/01/12 02:44:38;;;;;;;1.40;1.30;;;;;;;5.92;65.69;100375.78;4470857;32;33821;-82
2023/01/12 02:47:12;;;;;;;2.42;2.15;;;;;;;5.88;65.90;100378.41;4458114;31;33253;-83
2023/01/12 02:49:45;;;;;;;2.72;2.62;;;;;;;5.81;66.00;100366.31;4457578;32;34087;-82
2023/01/12 02:52:16;;;;;;;1.67;1.58;;;;;;;5.98;65.38;100357.34;4460840;32;33488;-82
2023/01/12 02:54:47;;;;;;;1.95;1.85;;;;;;;6.01;65.54;100357.31;4456737;32;34624;-83
2023/01/12 02:57:15;;;;;;;6.72;4.87;;;;;;;6.14;65.04;100353.59;4456651;32;34692;-82
2023/01/12 02:59:44;;;;;;;3.33;2.87;;;;;;;6.09;64.93;100360.66;4463902;32;34201;-83
2023/01/12 03:02:15;;;;;;;4.03;2.22;;;;;;;6.02;65.17;100361.66;4470723;32;34050;-83
2023/01/12 03:04:43;;;;;;;0.35;0.35;;;;;;;6.26;64.54;100353.38;4443136;32;32354;-82
2023/01/12 03:07:40;;;;;;;5.40;2.80;;;;;;;6.46;63.75;100362.63;4470255;32;33987;-82
2023/01/12 03:10:39;;;;;;;6.45;1.40;;;;;;;6.29;64.42;100363.81;4469303;32;32496;-82
2023/01/12 03:13:10;;;;;;;2.97;2.78;;;;;;;6.48;63.90;100360.88;4462886;32;32829;-83
2023/01/12 03:15:46;;;;;;;2.80;1.85;;;;;;;6.14;65.09;100366.69;4456623;32;33646;-82
2023/01/12 03:18:17;;;;;;;1.45;1.45;;;;;;;6.07;65.25;100362.44;4483903;32;33967;-82
2023/01/12 03:20:59;;;;;;;0.93;0.90;;;;;;;6.13;65.48;100365.84;4457559;32;33910;-83
2023/01/12 03:23:32;;;;;;;0.50;0.50;;;;;;;6.23;65.27;100352.56;4469519;32;33451;-83
2023/01/12 03:26:02;;;;;;;1.67;1.58;;;;;;;6.14;65.63;100350.97;4457795;32;34641;-83
2023/01/12 03:28:33;;;;;;;1.70;1.60;;;;;;;6.15;65.42;100350.94;4469720;32;33554;-83
2023/01/12 03:31:07;;;;;;;1.33;1.23;;;;;;;6.22;65.53;100356.97;4457580;32;33423;-83
2023/01/12 03:33:38;;;;;;;4.00;2.10;;;;;;;6.26;65.49;100353.38;4470382;32;33083;-83
2023/01/12 03:36:07;;;;;;;1.08;1.08;;;;;;;6.11;65.56;100345.78;4442867;32;33133;-82
2023/01/12 03:38:55;;;;;;;7.55;2.17;;;;;;;6.06;66.31;100344.97;4483907;32;33912;-84
2023/01/12 03:41:56;;;;;;;1.92;1.77;;;;;;;6.24;65.60;100344.69;4461378;31;33667;-84
2023/01/12 03:44:52;;;;;;;5.05;2.60;;;;;;;6.31;65.51;100346.28;4483569;32;33119;-84
2023/01/12 03:47:23;;;;;;;3.10;2.62;;;;;;;6.36;65.55;100333.97;4457690;32;33898;-84
2023/01/12 03:50:09;;;;;;;1.87;1.35;;;;;;;6.75;63.94;100347.25;4456716;32;33325;-82
2023/01/12 03:52:38;;;;;;;1.73;1.62;;;;;;;6.72;63.70;100342.03;4444548;32;33290;-82
2023/01/12 03:55:11;;;;;;;1.23;1.17;;;;;;;6.71;63.81;100345.56;4457239;31;33625;-82
2023/01/12 03:57:38;;;;;;;;;;;;;;;6.70;64.04;100348.22;4431258;32;32493;-82
2023/01/12 04:00:10;;;;;;;2.00;1.80;;;;;;;6.24;65.16;100346.44;4469164;32;33945;-82
2023/01/12 04:02:44;;;;;;;0.95;0.80;;;;;;;6.24;65.80;100344.69;4457742;32;34686;-83
2023/01/12 04:05:13;;;;;;;1.30;1.30;;;;;;;6.29;65.74;100347.22;4456838;32;33983;-83
2023/01/12 04:07:41;;;;;;;1.65;1.55;;;;;;;6.20;65.95;100356.09;4470283;32;34293;-83
2023/01/12 04:10:09;;;;;;;1.98;1.33;;;;;;;6.15;66.29;100352.69;4442327;32;32646;-83
2023/01/12 04:12:37;;;;;;;1.00;1.00;;;;;;;6.20;66.01;100345.63;4470056;32;32667;-83
2023/01/12 04:15:06;;;;;;;2.15;1.65;;;;;;;6.23;66.10;100340.31;4456751;32;33101;-82
2023/01/12 04:17:34;;;;;;;1.92;1.67;;;;;;;6.23;66.18;100342.94;4456369;32;33314;-82
2023/01/12 04:20:03;;;;;;;2.15;1.95;;;;;;;6.20;66.17;100343.00;4469324;32;34000;-83
2023/01/12 04:22:44;;;;;;;0.40;0.40;;;;;;;6.27;66.26;100341.16;4456604;32;32899;-83
2023/01/12 04:25:18;;;;;;;1.00;0.75;;;;;;;6.52;65.54;100333.69;4457572;32;32631;-83
2023/01/12 04:27:50;;;;;;;1.00;1.00;;;;;;;6.67;64.66;100329.00;4456787;32;32538;-83
2023/01/12 04:30:22;;;;;;;3.03;2.83;;;;;;;6.56;64.94;100330.12;4456251;32;34742;-83
2023/01/12 04:32:50;;;;;;;1.55;1.45;;;;;;;6.41;65.70;100340.00;4444471;32;32682;-83
2023/01/12 04:35:18;;;;;;;0.90;0.90;;;;;;;6.59;65.39;100340.53;4469986;32;33308;-83
2023/01/12 04:37:46;;;;;;;2.37;1.65;;;;;;;6.49;65.55;100338.97;4469468;32;32477;-83
2023/01/12 04:40:15;;;;;;;0.68;0.68;;;;;;;6.43;65.82;100341.72;4469787;32;34483;-83
2023/01/12 04:43:00;;;;;;;0.50;0.50;;;;;;;6.40;66.03;100342.63;4455896;32;32317;-83
2023/01/12 04:45:32;;;;;;;1.23;1.15;;;;;;;6.56;65.70;100344.09;4456897;32;32731;-83
2023/01/12 04:48:05;;;;;;;19.87;1.12;;;;;;;6.54;65.81;100355.50;4456042;32;32686;-84
2023/01/12 04:50:33;;;;;;;1.87;1.77;;;;;;;6.70;65.44;100350.84;4456255;32;34318;-85
2023/01/12 04:53:02;;;;;;;1.17;1.12;;;;;;;6.65;65.17;100353.56;4456345;32;32909;-85
2023/01/12 04:55:30;;;;;;;0.73;0.73;;;;;;;6.57;65.77;100337.09;4468146;32;32958;-86
2023/01/12 04:57:59;;;;;;;1.42;1.33;;;;;;;6.48;66.17;100347.75;4457068;32;33586;-83
2023/01/12 05:00:28;;;;;;;1.90;0.88;;;;;;;6.65;65.62;100343.06;4469516;32;33765;-83
2023/01/12 05:03:00;;;;;;;0.45;0.32;;;;;;;6.69;65.45;100342.09;4457641;31;32366;-83
2023/01/12 05:05:30;;;;;;;1.12;1.12;;;;;;;6.59;65.62;100345.78;4470104;32;33382;-83
2023/01/12 05:10:50;;;;;;;3.05;1.33;;;;;;;6.62;65.73;100345.75;4458167;32;34689;-83
2023/01/12 05:13:18;;;;;;;2.90;2.65;;;;;;;6.57;66.25;100342.34;4468942;32;34212;-83
2023/01/12 05:15:48;;;;;;;1.77;1.67;;;;;;;6.51;66.37;100356.44;4469958;32;34051;-83
2023/01/12 05:18:17;;;;;;;2.00;1.90;;;;;;;6.75;65.82;100359.50;4448180;32;33491;-83
2023/01/12 05:20:45;;;;;;;1.42;1.33;;;;;;;6.64;65.94;100362.31;4455242;32;33365;-83
2023/01/12 05:23:13;;;;;;;0.70;0.70;;;;;;;6.57;66.34;100376.44;4456168;32;34206;-83
2023/01/12 05:25:46;;;;;;;0.90;0.90;;;;;;;6.68;66.08;100375.34;4456195;32;32744;-83
2023/01/12 05:28:19;;;;;;;1.77;1.65;;;;;;;6.79;65.89;100369.91;4454175;32;33660;-83
2023/01/12 05:33:23;;;;;;;1.42;1.35;;;;;;;6.87;65.64;100369.75;4468916;32;32985;-83
2023/01/12 05:35:51;;;;;;;1.25;1.25;;;;;;;6.77;66.01;100362.94;4469254;32;33270;-84
2023/01/12 05:38:19;;;;;;;0.60;0.60;;;;;;;6.82;65.68;100354.09;4442946;32;32297;-84
2023/01/12 05:40:48;;;;;;;0.68;0.62;;;;;;;6.85;65.71;100359.28;4456585;32;35343;-83
2023/01/12 05:46:04;;;;;;;1.17;0.90;;;;;;;6.95;65.58;100369.63;4467663;32;33620;-82
2023/01/12 05:48:33;;;;;;;1.35;1.30;;;;;;;6.86;65.71;100373.28;4456067;32;33483;-82
2023/01/12 05:51:04;;;;;;;0.60;0.60;;;;;;;6.90;65.50;100367.06;4443004;32;34112;-81
2023/01/12 05:53:38;;;;;;;1.10;1.10;;;;;;;6.85;65.48;100364.53;4457162;32;34027;-82
2023/01/12 05:56:25;;;;;;;2.12;2.03;;;;;;;6.87;65.50;100375.00;4456078;32;33432;-82
2023/01/12 05:58:57;;;;;;;2.05;1.58;;;;;;;6.86;65.43;100370.66;4452856;32;34917;-82
2023/01/12 06:01:28;;;;;;;0.68;0.65;;;;;;;7.06;64.83;100362.37;4460318;32;37072;-82
2023/01/12 06:03:58;;;;;;;1.77;1.67;;;;;;;6.89;65.14;100355.72;4462590;31;33344;-81
2023/01/12 06:06:30;;;;;;;0.47;0.47;;;;;;;7.01;64.72;100369.47;4452412;32;31798;-82
2023/01/12 06:09:00;;;;;;;1.15;1.15;;;;;;;6.98;64.80;100365.16;4457621;32;32879;-82
2023/01/12 06:14:21;;;;;;;1.30;1.30;;;;;;;7.04;64.54;100361.56;4453842;32;33052;-84
2023/01/12 06:16:50;;;;;;;1.48;1.37;;;;;;;7.01;64.57;100358.97;4452377;32;32383;-84
2023/01/12 06:19:18;;;;;;;2.10;1.27;;;;;;;7.01;64.17;100358.97;4453460;32;32687;-83
2023/01/12 06:21:48;;;;;;;0.35;0.35;;;;;;;6.97;64.54;100357.31;4441886;32;34288;-83
2023/01/12 06:24:17;;;;;;;2.05;1.85;;;;;;;6.90;64.57;100364.44;4465864;32;33589;-83
2023/01/12 06:26:45;;;;;;;0.60;0.45;;;;;;;6.75;64.83;100373.50;4465935;32;34134;-83
2023/01/12 06:29:13;;;;;;;0.30;0.30;;;;;;;6.75;64.89;100368.25;4441224;32;33192;-83
2023/01/12 06:31:42;;;;;;;0.88;0.85;;;;;;;6.71;65.19;100381.44;4443196;32;35359;-84
2023/01/12 06:34:13;;;;;;;1.52;1.23;;;;;;;6.72;65.25;100383.16;4451748;32;34359;-83
2023/01/12 06:36:40;;;;;;;1.55;1.10;;;;;;;6.77;65.22;100376.94;4463222;32;32000;-83
2023/01/12 06:39:10;;;;;;;2.35;1.77;;;;;;;6.89;64.82;100381.97;4439290;31;32888;-84
2023/01/12 06:44:26;;;;;;;2.75;1.83;;;;;;;6.91;64.88;100400.31;4463961;32;33492;-84
2023/01/12 06:46:54;;;;;;;1.12;0.62;;;;;;;6.83;65.26;100408.31;4455315;32;31298;-84
2023/01/12 06:49:22;;;;;;;2.42;2.22;;;;;;;6.85;65.25;100418.81;4456891;32;33632;-85
2023/01/12 06:51:50;;;;;;;1.58;1.48;;;;;;;6.72;65.83;100420.78;4470442;32;33565;-85
2023/01/12 06:54:19;;;;;;;2.20;1.98;;;;;;;6.80;65.27;100412.78;4457292;32;35585;-85
2023/01/12 06:56:47;;;;;;;2.03;1.75;;;;;;;6.65;65.83;100419.16;4457327;32;33074;-85
2023/01/12 06:59:16;;;;;;;1.52;1.42;;;;;;;6.77;65.50;100418.94;4456990;32;33436;-85
2023/01/12 07:01:45;;;;;;;2.50;2.30;;;;;;;6.73;65.90;100417.25;4457301;32;33048;-85
2023/01/12 07:04:13;;;;;;;6.25;2.67;;;;;;;6.87;65.29;100415.25;4469348;32;33558;-85
2023/01/12 07:06:41;;;;;;;5.32;1.08;;;;;;;6.87;65.53;100425.75;4457550;32;32961;-85
2023/01/12 07:09:09;;;;;;;1.30;1.20;;;;;;;6.95;65.28;100422.12;4457058;32;32768;-88
2023/01/12 07:11:38;;;;;;;1.58;1.48;;;;;;;6.82;65.92;100422.34;4454626;32;33124;-87
2023/01/12 07:14:07;;;;;;;0.45;0.45;;;;;;;6.99;65.33;100414.16;4454362;32;32968;-88
2023/01/12 07:16:36;;;;;;;0.75;0.75;;;;;;;6.88;65.71;100419.63;4464700;32;34323;-86
2023/01/12 07:19:06;;;;;;;1.08;1.00;;;;;;;7.06;64.88;100417.53;4453691;32;32864;-89
2023/01/12 07:21:34;;;;;;;2.42;2.25;;;;;;;7.06;64.78;100415.75;4465171;32;33593;-86
2023/01/12 07:24:06;;;;;;;0.10;0.10;;;;;;;7.09;65.02;100420.97;4476191;32;34104;-86
2023/01/12 07:26:36;;;;;;;0.85;0.85;;;;;;;7.10;64.92;100427.94;4439352;32;31862;-84
2023/01/12 07:29:10;;;;;;;0.20;0.20;;;;;;;7.29;64.12;100423.19;4443168;32;34155;-85
2023/01/12 07:31:38;;;;;;;1.00;0.62;;;;;;;7.19;64.43;100426.87;4452753;32;33984;-85
2023/01/12 07:34:08;;;;;;;14.30;1.83;;;;;;;7.25;64.88;100441.66;4454303;32;33577;-86
2023/01/12 07:36:44;;;;;;;0.88;0.85;;;;;;;7.37;64.37;100437.03;4452575;32;34541;-85
2023/01/12 07:39:13;;;;;;;3.50;2.70;;;;;;;7.26;64.76;100452.12;4442571;32;31681;-86
2023/01/12 07:44:33;;;;;;;2.37;2.22;;;;;;;7.31;64.86;100452.94;4454591;32;32421;-87
2023/01/12 07:47:03;;;;;;;0.93;0.80;;;;;;;7.31;65.12;100454.66;4442671;32;32179;-85
2023/01/12 07:49:32;;;;;;;1.75;1.60;;;;;;;7.37;65.13;100458.06;4441474;32;32247;-85
2023/01/12 07:52:09;;;;;;;8.20;4.75;;;;;;;7.48;64.77;100452.56;4452347;32;34645;-85
2023/01/12 07:54:44;;;;;;;1.15;1.05;;;;;;;7.47;64.97;100447.34;4454986;32;33258;-86
2023/01/12 07:57:12;;;;;;;2.97;2.10;;;;;;;7.50;64.85;100452.53;4450067;32;32283;-85
2023/01/12 07:59:40;;;;;;;2.40;1.25;;;;;;;7.60;64.64;100444.44;4457185;32;33087;-86
2023/01/12 08:02:15;;;;;;;2.75;2.55;;;;;;;7.60;64.42;100452.31;4470464;32;34008;-86
2023/01/12 08:04:47;;;;;;;5.12;1.55;;;;;;;7.64;64.37;100458.38;4459243;32;34497;-86
2023/01/12 08:07:16;;;;;;;2.90;2.10;;;;;;;7.66;64.43;100456.59;4457265;32;33024;-86
2023/01/12 08:09:45;;;;;;;1.33;1.23;;;;;;;7.81;64.15;100461.50;4458611;31;33958;-85
2023/01/12 08:12:13;;;;;;;1.15;1.10;;;;;;;7.81;64.26;100463.28;4470282;32;33616;-85
2023/01/12 08:14:41;;;;;;;2.22;2.05;;;;;;;7.80;64.34;100457.16;4456677;32;33850;-86
2023/01/12 08:17:17;;;;;;;4.65;2.00;;;;;;;7.84;64.25;100464.06;4458684;32;33996;-85
2023/01/12 08:19:54;;;;;;;2.42;2.03;;;;;;;7.82;64.52;100455.34;4457877;32;33593;-85
2023/01/12 08:22:27;;;;;;;1.25;1.15;;;;;;;7.99;64.27;100462.88;4456354;32;33347;-85
2023/01/12 08:25:00;;;;;;;2.72;2.53;;;;;;;8.20;63.69;100466.75;4457098;32;34573;-85
2023/01/12 08:27:30;;;;;;;1.50;1.40;;;;;;;8.15;63.99;100463.38;4470370;32;33534;-86
2023/01/12 08:30:07;;;;;;;1.95;1.80;;;;;;;8.32;63.70;100468.25;4469140;32;32392;-85
2023/01/12 08:32:38;;;;;;;2.12;1.92;;;;;;;8.37;63.89;100467.28;4457331;32;34048;-86
2023/01/12 08:35:06;;;;;;;3.90;1.23;;;;;;;8.33;64.10;100457.69;4457127;32;33911;-85
2023/01/12 08:37:34;;;;;;;0.90;0.90;;;;;;;8.31;64.34;100462.12;4456267;32;32350;-85
2023/01/12 08:40:04;;;;;;;3.97;2.80;;;;;;;8.23;64.30;100460.56;4457570;32;33579;-85
2023/01/12 08:42:36;;;;;;;0.30;0.30;;;;;;;8.23;64.10;100471.97;4468282;32;34663;-85
2023/01/12 08:45:08;;;;;;;0.85;0.80;;;;;;;8.62;63.19;100471.94;4453514;32;32765;-88
2023/01/12 08:47:39;;;;;;;0.73;0.73;;;;;;;8.37;64.16;100474.31;4457602;32;32760;-87
2023/01/12 08:50:09;;;;;;;0.30;0.30;;;;;;;8.34;64.72;100477.81;4457822;32;34740;-86
2023/01/12 08:52:37;;;;;;;4.70;1.45;;;;;;;8.71;63.42;100477.81;4458867;31;32362;-86
2023/01/12 08:55:06;;;;;;;2.10;1.90;;;;;;;8.61;63.63;100467.56;4469866;32;33700;-86
2023/01/12 08:57:35;;;;;;;1.02;0.95;;;;;;;8.64;63.57;100468.38;4442711;32;33093;-86
2023/01/12 09:00:05;;;;;;;1.00;1.00;;;;;;;8.61;64.10;100467.56;4455734;32;33684;-86
2023/01/12 09:02:35;;;;;;;3.95;2.00;;;;;;;8.46;64.30;100469.69;4457166;32;32822;-86
2023/01/12 09:05:05;;;;;;;0.70;0.70;;;;;;;8.40;64.41;100479.47;4443375;31;32918;-86
2023/01/12 09:07:33;;;;;;;0.60;0.60;;;;;;;7.98;66.12;100476.06;4457019;32;33102;-86
2023/01/12 09:10:10;;;;;;;0.57;0.52;;;;;;;8.21;65.12;100473.75;4444723;32;33142;-86
2023/01/12 09:12:40;;;;;;;2.10;1.83;;;;;;;8.35;64.82;100465.53;4482139;32;34921;-86
2023/01/12 09:15:09;;;;;;;3.83;1.87;;;;;;;8.49;64.18;100467.87;4446393;31;32129;-85
2023/01/12 09:17:38;;;;;;;0.95;0.95;;;;;;;8.40;64.82;100474.22;4469755;32;34042;-86
2023/01/12 09:20:06;;;;;;;1.42;1.33;;;;;;;8.46;65.08;100464.41;4463168;32;32991;-86
2023/01/12 09:22:35;;;;;;;1.60;1.52;;;;;;;8.72;64.43;100461.13;4456816;32;32641;-87
2023/01/12 09:25:03;;;;;;;1.17;0.88;;;;;;;8.60;65.38;100476.38;4456077;32;33632;-86
2023/01/12 09:27:32;;;;;;;1.30;1.20;;;;;;;8.82;65.27;100469.66;4454822;32;33479;-86
2023/01/12 09:30:00;;;;;;;2.85;2.15;;;;;;;9.26;64.38;100466.72;4455293;32;33044;-86
2023/01/12 09:32:28;;;;;;;1.62;1.52;;;;;;;8.99;65.77;100469.22;4455694;32;32690;-86
2023/01/12 09:35:06;;;;;;;3.90;1.60;;;;;;;9.10;65.87;100461.03;4457875;32;33333;-86
2023/01/12 09:37:34;;;;;;;4.93;3.72;;;;;;;9.46;64.33;100470.56;4456228;32;32805;-86
2023/01/12 09:40:03;;;;;;;0.82;0.82;;;;;;;9.78;63.56;100471.41;4456556;32;34568;-86
2023/01/12 09:48:18;;;;;;;1.67;1.58;;;;;;;9.17;65.35;100462.59;4459011;32;33149;-86
2023/01/12 09:51:10;;;;;;;1.45;1.10;;;;;;;9.35;65.25;100464.72;4455312;32;33354;-86
2023/01/12 09:53:41;;;;;;;;;;;;;;;9.29;65.47;100464.88;4463631;32;34828;-86
2023/01/12 09:56:14;;;;;;;0.00;0.00;;;;;;;9.55;64.80;100461.53;4440215;32;33284;-86
2023/01/12 09:59:10;;;;;;;0.73;0.73;;;;;;;9.47;65.12;100461.72;4431347;32;32004;-86
2023/01/12 10:01:38;;;;;;;1.15;1.05;;;;;;;9.70;63.90;100453.16;4454546;32;31738;-86
2023/01/12 10:04:08;;;;;;;3.65;2.58;;;;;;;10.08;62.31;100445.84;4466696;32;33363;-86
2023/01/12 10:06:38;;;;;;;1.02;1.02;;;;;;;9.64;63.69;100453.34;4452210;32;34358;-86
2023/01/12 10:09:12;;;;;;;1.67;1.58;;;;;;;9.91;63.29;100456.03;4443804;32;32611;-86
2023/01/12 10:11:53;;;;;;;0.75;0.75;;;;;;;10.15;62.42;100454.41;4457767;32;33499;-86
2023/01/12 10:14:25;;;;;;;1.60;1.52;;;;;;;10.38;61.80;100443.16;4456365;32;32966;-86
2023/01/12 10:16:58;;;;;;;1.90;1.63;;;;;;;9.97;62.88;100446.19;4484824;32;33691;-86
2023/01/12 10:19:35;;;;;;;0.50;0.47;;;;;;;10.03;62.50;100446.91;4470512;32;31895;-86
2023/01/12 10:22:36;;;;;;;1.10;1.10;;;;;;;10.24;61.55;100438.31;4484444;31;33861;-87
2023/01/12 10:25:25;;;;;;;0.30;0.30;;;;;;;10.18;61.75;100433.22;4459786;32;34387;-86
2023/01/12 10:27:56;;;;;;;3.40;3.15;;;;;;;9.83;62.83;100440.47;4457350;32;32202;-86
2023/01/12 10:30:36;;;;;;;0.62;0.62;;;;;;;9.40;64.13;100444.37;4457571;32;31825;-86
2023/01/12 10:33:18;;;;;;;0.88;0.68;;;;;;;9.91;62.80;100441.06;4444549;31;33438;-86
2023/01/12 10:35:50;;;;;;;;;;;;;;;10.04;62.77;100440.72;4457515;32;32602;-87
2023/01/12 10:38:40;;;;;;;7.07;0.93;;;;;;;10.19;62.35;100429.66;4447006;32;34003;-85
2023/01/12 10:43:59;;;;;;;1.87;1.77;;;;;;;10.13;62.34;100441.28;4471366;32;33773;-85
2023/01/12 10:46:31;;;;;;;1.67;1.58;;;;;;;9.63;64.22;100440.19;4483701;32;34072;-86
2023/01/12 10:49:20;;;;;;;0.28;0.28;;;;;;;9.77;64.15;100432.72;4457798;32;33505;-86
2023/01/12 10:51:58;;;;;;;1.95;1.65;;;;;;;9.88;63.93;100435.91;4484773;32;34303;-86
2023/01/12 10:54:32;;;;;;;1.15;1.15;;;;;;;10.43;61.98;100423.63;4470690;32;33584;-85
2023/01/12 10:57:12;;;;;;;1.02;0.90;;;;;;;10.52;61.51;100431.22;4445004;32;32536;-85
2023/01/12 10:59:50;;;;;;;0.88;0.88;;;;;;;10.47;61.74;100419.97;4461062;32;35964;-85
2023/01/12 11:02:19;;;;;;;3.45;3.03;;;;;;;10.27;62.21;100427.69;4462514;32;34150;-85
2023/01/12 11:04:51;;;;;;;4.57;4.18;;;;;;;10.44;61.78;100419.19;4451674;31;33684;-86
2023/01/12 11:07:30;;;;;;;2.92;2.53;;;;;;;10.20;62.75;100418.19;4463961;31;33065;-86
2023/01/12 11:10:25;;;;;;;1.02;1.02;;;;;;;10.14;62.89;100421.91;4466836;31;33936;-86
2023/01/12 11:13:02;;;;;;;0.70;0.70;;;;;;;10.27;62.50;100409.22;4475883;31;33208;-85
2023/01/12 11:15:37;;;;;;;2.03;1.90;;;;;;;10.50;62.08;100404.03;4449454;32;33437;-86
2023/01/12 11:21:12;;;;;;;0.85;0.85;;;;;;;10.15;63.31;100412.19;4451350;32;33294;-86
2023/01/12 11:23:42;;;;;;;1.50;1.40;;;;;;;10.62;61.50;100409.78;4462304;32;33395;-85
2023/01/12 11:26:22;;;;;;;1.37;1.15;;;;;;;10.39;62.44;100414.06;4468054;32;33670;-86
2023/01/12 11:28:53;;;;;;;1.25;1.10;;;;;;;10.20;63.12;100405.00;4469984;32;33936;-85
2023/01/12 11:31:28;;;;;;;1.48;1.37;;;;;;;10.43;62.34;100399.00;4455555;32;32371;-86
2023/01/12 11:34:15;;;;;;;1.42;1.33;;;;;;;10.44;61.90;100388.41;4442375;32;32886;-85
2023/01/12 11:36:46;;;;;;;3.28;2.75;;;;;;;10.39;62.41;100390.31;4454473;32;34014;-85
2023/01/12 11:39:19;;;;;;;13.30;1.58;;;;;;;10.29;62.14;100391.53;4441859;32;34513;-86
2023/01/12 11:44:57;;;;;;;0.75;0.75;;;;;;;10.36;62.21;100394.84;4443337;32;32346;-86
2023/01/12 11:47:30;;;;;;;7.12;2.78;;;;;;;10.42;62.53;100377.00;4441538;32;32927;-86
2023/01/12 11:50:01;;;;;;;1.75;1.55;;;;;;;10.43;62.61;100373.44;4440561;32;31701;-86
2023/01/12 11:52:30;;;;;;;2.28;2.08;;;;;;;10.35;62.99;100382.53;4467613;32;33877;-86
2023/01/12 11:54:57;;;;;;;0.30;0.30;;;;;;;10.28;63.48;100381.88;4440883;32;34286;-86
2023/01/12 11:57:48;;;;;;;2.08;1.98;;;;;;;10.21;63.35;100378.56;4439730;32;33296;-85
2023/01/12 12:00:22;;;;;;;2.12;1.40;;;;;;;10.32;63.08;100383.53;4450797;32;34025;-86
2023/01/12 12:03:00;;;;;;;10.23;2.55;;;;;;;10.62;61.83;100384.25;4439937;32;32128;-86
2023/01/12 12:05:38;;;;;;;1.65;1.52;;;;;;;10.54;62.15;100375.75;4453798;32;32060;-86
2023/01/12 12:08:27;;;;;;;3.15;1.30;;;;;;;10.65;62.04;100375.38;4440939;32;32696;-86
2023/01/12 12:10:58;;;;;;;1.27;1.17;;;;;;;10.60;61.76;100377.31;4450768;32;33668;-85
2023/01/12 12:13:29;;;;;;;2.78;1.87;;;;;;;10.66;61.64;100383.22;4433320;32;33187;-86
2023/01/12 12:16:38;;;;;;;1.05;1.05;;;;;;;10.72;61.97;100371.59;4451060;32;32112;-85
2023/01/12 12:19:34;;;;;;;1.58;1.40;;;;;;;10.43;62.28;100376.09;4426294;32;33633;-85
2023/01/12 12:22:40;;;;;;;0.95;0.60;;;;;;;10.49;62.61;100385.56;4439904;32;32722;-85
2023/01/12 12:25:21;;;;;;;5.45;3.17;;;;;;;10.62;62.47;100380.75;4404873;32;33368;-85
2023/01/12 12:28:17;;;;;;;1.95;1.85;;;;;;;10.89;61.53;100378.94;4403854;32;33448;-85
2023/01/12 12:31:21;;;;;;;1.60;1.50;;;;;;;10.96;61.38;100376.00;4422946;32;32833;-85
2023/01/12 12:33:59;;;;;;;0.82;0.82;;;;;;;10.79;61.41;100367.81;4426687;32;33897;-86
2023/01/12 12:36:38;;;;;;;1.77;1.65;;;;;;;11.02;61.04;100359.06;4452528;32;33962;-85
2023/01/12 12:39:28;;;;;;;2.65;1.00;;;;;;;11.21;60.50;100359.25;4467876;32;33272;-86